• Join FlightAware (Why Join?)
  • Login
  • US Flag 
04:27AM EST


 

Airport Tracker/Info


-or-


 

Live Flight TrackerFlight Track Log ✈ N143DE ✈ 27-Jun-2013 ✈ KATL - KCVG

Flight Track Log - Related Links

Times and Time Zones

All times are in EDT time to prevent confusion due to time zone crossing. See the N143DE flight status page for this flight to view local times or setup timezone preferences in your user account.

Time Position Orientation Groundspeed Altitude Reporting Facility
EDT Latitude Longitude Course Direction KTS MPH feet Rate Location/Type
05:58AM 33.6833 -84.4833 320° Northwest 159 183 4,500  Level Atlanta TRACON
05:59AM 33.7333 -84.5000 345° North 197 227 6,000 1,440 Climbing Atlanta TRACON
06:00AM 33.7833 -84.4833 15° North 199 229 7,400 1,380 Climbing Atlanta TRACON
06:02AM 33.8936 -84.4642 North 209 241 10,400 1,320 Climbing Atlanta Center
06:03AM 33.9583 -84.4444 14° North 204 235 11,600 1,140 Climbing Atlanta Center
06:04AM 34.0150 -84.4272 14° North 204 235 12,700 960 Climbing Atlanta Center
06:05AM 34.0672 -84.4200 North 204 235 13,600 900 Climbing Atlanta Center
06:06AM 34.1214 -84.4178 North 199 229 14,500 720 Climbing Atlanta Center
06:07AM 34.1839 -84.4131 North 199 229 15,100 600 Climbing Atlanta Center
06:08AM 34.2467 -84.4056 North 216 249 15,800 780 Climbing Atlanta Center
06:09AM 34.3114 -84.4008 North 221 254 16,700 780 Climbing Atlanta Center
06:10AM 34.3719 -84.3961 North 216 249 17,400 720 Climbing Atlanta Center
06:11AM 34.4283 -84.3889 North 216 249 18,200 720 Climbing Atlanta Center
06:12AM 34.4931 -84.3814 North 216 249 18,900 360 Climbing Atlanta Center
06:13AM 34.5514 -84.3767 North 211 243 19,000  Climbing Atlanta Center
06:14AM 34.6142 -84.3694 North 216 249 19,000  Level Atlanta Center
06:15AM 34.6789 -84.3619 North 224 258 19,000  Level Atlanta Center
06:16AM 34.7433 -84.3547 North 224 258 19,000  Level Atlanta Center
06:17AM 34.8039 -84.3475 North 229 264 19,000  Level Atlanta Center
06:18AM 34.8708 -84.3425 North 229 264 19,000  Level Atlanta Center
06:19AM 34.9272 -84.3378 North 229 264 19,000  Level Atlanta Center
06:20AM 34.9919 -84.3303 North 229 264 19,000  Level Atlanta Center
06:21AM 35.0567 -84.3231 North 229 264 19,000  Level Atlanta Center
06:22AM 35.1214 -84.3156 North 234 269 19,000  Level Atlanta Center
06:23AM 35.1839 -84.3106 North 229 264 19,100  Climbing Atlanta Center
06:24AM 35.2486 -84.3033 North 229 264 19,000 -60 Descending Atlanta Center
06:25AM 35.3111 -84.2983 North 229 264 19,000  Level Atlanta Center
06:26AM 35.3739 -84.2908 North 229 264 19,000  Level Atlanta Center
06:27AM 35.4364 -84.2861 North 229 264 19,100  Climbing Atlanta Center
06:28AM 35.5011 -84.2786 North 229 264 19,000 -60 Descending Atlanta Center
06:29AM 35.5636 -84.2711 North 229 264 19,000  Level Atlanta Center
06:30AM 35.6283 -84.2661 North 229 264 19,000  Level Atlanta Center
06:31AM 35.6931 -84.2586 North 229 264 19,000  Level Atlanta Center
06:32AM 35.7556 -84.2486 North 229 264 19,000  Level Atlanta Center
06:33AM 35.8183 -84.2436 North 229 264 19,000  Level Atlanta Center
06:34AM 35.8808 -84.2361 North 229 264 19,000  Level Atlanta Center
06:35AM 35.9456 -84.2311 North 229 264 19,000  Level Atlanta Center
06:36AM 36.0081 -84.2236 North 229 264 19,000  Level Atlanta Center
06:37AM 36.0706 -84.2186 North 229 264 19,000  Level Atlanta Center
06:39AM 36.1550 -84.2053 North 224 258 19,000  Level Indianapolis Center
06:40AM 36.2172 -84.2008 North 223 257 19,000  Level Indianapolis Center
06:41AM 36.2781 -84.1917 North 222 255 19,000  Level Indianapolis Center
06:42AM 36.3408 -84.1861 North 225 259 19,100  Climbing Indianapolis Center
06:43AM 36.4019 -84.1783 North 222 255 19,000 -60 Descending Indianapolis Center
06:44AM 36.4631 -84.1722 North 222 255 19,000  Level Indianapolis Center
06:45AM 36.5333 -84.1633 North 221 254 19,000  Level Indianapolis Center
06:46AM 36.5944 -84.1553 North 220 253 19,000  Level Indianapolis Center
06:47AM 36.6561 -84.1378 13° North 226 260 19,000  Level Indianapolis Center
06:48AM 36.7167 -84.1297 North 220 253 19,100  Climbing Indianapolis Center
06:49AM 36.7803 -84.1389 353° North 225 259 19,100  Level Indianapolis Center
06:50AM 36.8439 -84.1275 North 231 266 19,100  Level Indianapolis Center
06:51AM 36.9067 -84.1206 North 229 264 19,100  Level Indianapolis Center
06:52AM 36.9692 -84.1139 North 228 262 19,100  Level Indianapolis Center
06:53AM 37.0325 -84.1072 North 228 262 19,100  Level Indianapolis Center
06:54AM 37.0953 -84.1014 North 226 260 19,100  Level Indianapolis Center
06:55AM 37.1592 -84.0958 North 228 262 19,100  Level Indianapolis Center
06:56AM 37.2336 -84.0906 North 228 262 19,100  Level Indianapolis Center
06:57AM 37.2972 -84.0831 North 228 262 19,100  Level Indianapolis Center
06:58AM 37.3608 -84.0808 North 228 262 19,100  Level Indianapolis Center
06:59AM 37.4244 -84.0736 North 229 264 19,100  Level Indianapolis Center
07:00AM 37.4875 -84.0686 North 228 262 19,100  Level Indianapolis Center
07:01AM 37.5519 -84.0633 North 230 265 19,100  Level Indianapolis Center
07:02AM 37.6169 -84.0572 North 232 267 19,100  Level Indianapolis Center
07:03AM 37.6811 -84.0506 North 233 268 19,100  Level Indianapolis Center
07:04AM 37.7447 -84.0453 North 226 260 19,100  Level Indianapolis Center
07:05AM 37.8097 -84.0372 North 232 267 19,100  Level Indianapolis Center
07:06AM 37.8719 -84.0322 North 225 259 19,100  Level Indianapolis Center
07:07AM 37.9308 -84.0456 350° North 217 250 19,100  Level Indianapolis Center
07:08AM 37.9975 -84.0739 341° North 218 251 19,100 -780 Level Indianapolis Center
07:09AM 38.0608 -84.0950 345° North 235 270 17,600 -1,500 Descending Indianapolis Center
07:10AM 38.1286 -84.1208 343° North 255 293 16,100 -1,620 Descending Indianapolis Center
07:11AM 38.1994 -84.1442 345° North 261 300 14,400 -1,620 Descending Indianapolis Center
07:12AM 38.2700 -84.1686 345° North 262 302 12,800 -1,380 Descending Indianapolis Center
07:13AM 38.3411 -84.1936 345° North 267 307 11,600 -900 Descending Indianapolis Center
07:14AM 38.4083 -84.2192 343° North 254 292 11,000 -300 Descending Indianapolis Center
07:15AM 38.4733 -84.2364 348° North 238 274 11,000  Level Indianapolis Center
07:16AM 38.5333 -84.2614 342° North 227 261 11,000  Level Indianapolis Center
07:17AM 38.5956 -84.2861 343° North 232 267 11,000  Level Indianapolis Center
07:18AM 38.6533 -84.3097 342° North 231 266 11,000  Level Indianapolis Center
07:19AM 38.7183 -84.3508 334° Northwest 223 257 11,000  Level Indianapolis Center
07:20AM 38.7714 -84.3908 330° Northwest 219 252 11,000 -600 Level Indianapolis Center
07:22AM 38.8117 -84.4572 308° West 228 262 9,900 -1,020 Descending Indianapolis Center
07:23AM 38.8486 -84.5275 304° West 237 273 9,000 -480 Descending Indianapolis Center
07:24AM 38.9194 -84.5192 North 237 273 9,000  Level Indianapolis Center
07:25AM 38.9794 -84.5239 356° North 219 252 9,000 -600 Level Indianapolis Center
07:26AM 39.0417 -84.5356 352° North 220 253 7,800 -1,380 Descending Indianapolis Center
07:27AM 39.1111 -84.5497 351° North 242 278 6,200 -1,680 Descending Indianapolis Center
07:28AM 39.1775 -84.5622 352° North 242 278 4,500 -1,440 Descending Indianapolis Center
07:29AM 39.2289 -84.6156 321° Northwest 242 278 3,300 -600 Descending Indianapolis Center
07:30AM 39.1667 -84.6500 203° Southwest 145 167 3,000 -240 Descending Cincinnati TRACON